This is the latest recevied weather packets stored in our database for station/object DL7KST-13. If no packets are shown the sender has not sent any weather packets the latest 10 day(s).
| Time | Temp. | Humidity | Pressure | Rain* | Wind** | Luminosity | Snow |
|---|---|---|---|---|---|---|---|
| 1777699423 | 8.33° C | 84% | 1014.2 hPa | 0 mm | 0.45 m/s, 38° | - | - |
| 1777698219 | 6.67° C | 88% | 1014 hPa | 0 mm | 0.45 m/s, 64° | - | - |
| 1777697014 | 5° C | 90% | 1014.2 hPa | 0 mm | 0.45 m/s, 97° | - | - |
| 1777695809 | 4.44° C | 90% | 1014.1 hPa | 0 mm | 0.45 m/s, 54° | - | - |
| 1777694603 | 4.44° C | 91% | 1014.2 hPa | 0 mm | 0.45 m/s, 50° | - | - |
| 1777693398 | 3.89° C | 91% | 1014.1 hPa | 0 mm | 0.45 m/s, 92° | - | - |
| 1777692193 | 3.89° C | 90% | 1014.2 hPa | 0 mm | 0.89 m/s, 56° | - | - |
| 1777690988 | 4.44° C | 88% | 1014.3 hPa | 0 mm | 0.45 m/s, 100° | - | - |
| 1777689782 | 4.44° C | 88% | 1014.2 hPa | 0 mm | 0.45 m/s, 68° | - | - |
| 1777688579 | 4.44° C | 89% | 1014.5 hPa | 0 mm | 0.45 m/s, 79° | - | - |
| 1777687373 | 4.44° C | 88% | 1014.5 hPa | 0 mm | 0.45 m/s, 97° | - | - |
| 1777686168 | 5° C | 87% | 1014.7 hPa | 0 mm | 0.45 m/s, 57° | - | - |
| 1777684963 | 5° C | 87% | 1014.7 hPa | 0 mm | 0.89 m/s, 62° | - | - |
| 1777683758 | 5° C | 87% | 1014.8 hPa | 0 mm | 0.45 m/s, 66° | - | - |
| 1777682553 | 5° C | 87% | 1015 hPa | 0 mm | 0.45 m/s, 80° | - | - |
| 1777681348 | 5.56° C | 85% | 1015.1 hPa | 0 mm | 1.79 m/s, 45° | - | - |
| 1777680143 | 6.11° C | 85% | 1015.1 hPa | 0 mm | 0.45 m/s, 82° | - | - |
| 1777678938 | 6.11° C | 85% | 1015 hPa | 0 mm | 0.45 m/s, 43° | - | - |
| 1777677733 | 6.11° C | 83% | 1015.4 hPa | 0 mm | 0.45 m/s, 80° | - | - |
| 1777676528 | 6.67° C | 81% | 1015.4 hPa | 0 mm | 0 m/s | - | - |
| 1777675323 | 7.22° C | 80% | 1015.4 hPa | 0 mm | 0.89 m/s, 100° | - | - |
| 1777674120 | 7.78° C | 78% | 1015.4 hPa | 0 mm | 0.89 m/s, 67° | - | - |
| 1777672913 | 7.78° C | 77% | 1015.6 hPa | 0 mm | 0 m/s | - | - |
| 1777671708 | 8.33° C | 74% | 1015.5 hPa | 0 mm | 0 m/s | - | - |
| 1777670504 | 9.44° C | 72% | 1015.5 hPa | 0 mm | 0 m/s | - | - |
* Rain latest hour (hover to see other rain measurements)
** Current wind speed in m/s (hover to see current wind gust speed)